Time;durP1;ratioP1;P1;durP2;ratioP2;P2;SDS_P1;SDS_P2;PMS_P1;PMS_P2;Temp;Humidity;BMP_temperature;BMP_pressure;BME280_temperature;BME280_humidity;BME280_pressure;Samples;Min_cycle;Max_cycle;Signal;HPM_P1;HPM_P2
2023/11/22 00:00:15;;;;;;;7.07;3.53;;;5.50;99.90;;;;;;2076921;28;20723;-68
2023/11/22 00:01:15;;;;;;;6.13;3.70;;;5.50;99.90;;;;;;2078279;28;20233;-68
2023/11/22 00:02:17;;;;;;;8.63;3.57;;;5.50;99.90;;;;;;2081490;28;20236;-68
2023/11/22 00:03:18;;;;;;;4.47;3.28;;;5.50;99.90;;;;;;2076093;28;20779;-68
2023/11/22 00:04:20;;;;;;;5.60;3.38;;;5.40;99.90;;;;;;2077512;28;20232;-68
2023/11/22 00:05:21;;;;;;;5.20;3.58;;;5.50;99.90;;;;;;2092591;28;20258;-68
2023/11/22 00:06:21;;;;;;;6.68;3.88;;;5.50;99.90;;;;;;2091295;28;20232;-68
2023/11/22 00:07:22;;;;;;;4.33;2.80;;;5.50;99.90;;;;;;2091611;28;20217;-68
2023/11/22 00:08:23;;;;;;;5.87;3.20;;;5.40;99.90;;;;;;2090323;28;20257;-68
2023/11/22 00:09:23;;;;;;;5.70;3.57;;;5.50;99.90;;;;;;2081779;28;20639;-68
2023/11/22 00:10:24;;;;;;;8.00;3.27;;;5.50;99.90;;;;;;2077685;28;20230;-68
2023/11/22 00:11:25;;;;;;;5.77;3.20;;;5.50;99.90;;;;;;2085676;28;20234;-68
2023/11/22 00:12:26;;;;;;;7.07;3.40;;;5.50;99.90;;;;;;2073359;28;20236;-68
2023/11/22 00:13:27;;;;;;;5.93;3.13;;;5.50;99.90;;;;;;2080890;28;20282;-68
2023/11/22 00:14:27;;;;;;;4.70;3.53;;;5.50;99.90;;;;;;2079482;28;20229;-68
2023/11/22 00:15:28;;;;;;;4.43;3.20;;;5.60;99.90;;;;;;2084772;28;20253;-68
2023/11/22 00:16:30;;;;;;;4.20;3.08;;;5.60;99.90;;;;;;2090165;28;20807;-68
2023/11/22 00:17:31;;;;;;;5.15;3.25;;;5.70;99.90;;;;;;2083521;28;20229;-67
2023/11/22 00:18:31;;;;;;;7.03;3.27;;;5.60;99.90;;;;;;2072939;28;20237;-68
2023/11/22 00:19:32;;;;;;;5.17;3.00;;;5.60;99.90;;;;;;2089165;28;20245;-68
2023/11/22 00:20:36;;;;;;;7.20;3.23;;;5.60;99.90;;;;;;2087631;28;20228;-68
2023/11/22 00:21:37;;;;;;;3.90;2.60;;;5.60;99.90;;;;;;2088009;28;20232;-68
2023/11/22 00:22:37;;;;;;;3.83;2.50;;;5.60;99.90;;;;;;2084587;28;20364;-68
2023/11/22 00:23:38;;;;;;;2.43;1.97;;;5.50;99.90;;;;;;2083790;28;20230;-68
2023/11/22 00:24:40;;;;;;;5.80;3.20;;;5.50;99.90;;;;;;2075451;28;20308;-68
2023/11/22 00:25:40;;;;;;;4.88;2.80;;;5.40;99.90;;;;;;2094364;28;20222;-68
2023/11/22 00:26:41;;;;;;;4.93;2.70;;;5.50;99.90;;;;;;2085872;28;20781;-67
2023/11/22 00:27:42;;;;;;;4.47;2.60;;;5.50;99.90;;;;;;2081242;28;20225;-67
2023/11/22 00:28:43;;;;;;;3.57;2.43;;;5.50;99.90;;;;;;2079733;28;20347;-68
2023/11/22 00:29:43;;;;;;;4.33;2.50;;;5.60;99.90;;;;;;2083752;28;20266;-68
2023/11/22 00:30:44;;;;;;;4.03;2.40;;;5.60;99.90;;;;;;2089418;28;20227;-68
2023/11/22 00:31:45;;;;;;;6.22;2.60;;;5.60;99.90;;;;;;2076694;28;20231;-68
2023/11/22 00:32:46;;;;;;;4.13;2.63;;;5.70;99.90;;;;;;2082765;28;20240;-68
2023/11/22 00:33:47;;;;;;;3.87;2.60;;;5.70;99.90;;;;;;2089046;28;20441;-68
2023/11/22 00:34:47;;;;;;;3.80;2.43;;;5.80;99.90;;;;;;2089657;28;20795;-68
2023/11/22 00:35:48;;;;;;;6.23;2.70;;;5.70;99.90;;;;;;2090579;28;20332;-68
2023/11/22 00:36:50;;;;;;;4.33;2.67;;;5.80;99.90;;;;;;2092013;28;20281;-68
2023/11/22 00:37:51;;;;;;;5.32;2.55;;;5.80;99.90;;;;;;2094377;28;20234;-67
2023/11/22 00:38:52;;;;;;;3.87;2.33;;;5.90;99.90;;;;;;2085322;28;20235;-68
2023/11/22 00:39:52;;;;;;;4.93;2.53;;;5.80;99.90;;;;;;2074859;28;20206;-68
2023/11/22 00:40:53;;;;;;;3.63;2.60;;;5.90;99.90;;;;;;2074224;28;20190;-68
2023/11/22 00:41:55;;;;;;;4.87;2.77;;;5.90;99.90;;;;;;2089849;28;20730;-69
2023/11/22 00:42:56;;;;;;;4.35;2.28;;;5.90;99.90;;;;;;2091536;28;20290;-68
2023/11/22 00:43:56;;;;;;;5.13;2.97;;;5.90;99.90;;;;;;2083404;28;20243;-68
2023/11/22 00:44:57;;;;;;;4.00;2.13;;;5.80;99.90;;;;;;2091718;28;20184;-68
2023/11/22 00:45:58;;;;;;;3.07;2.30;;;5.70;99.90;;;;;;2095879;28;20194;-68
2023/11/22 00:46:59;;;;;;;4.57;2.60;;;5.70;99.90;;;;;;2083129;28;20260;-69
2023/11/22 00:47:59;;;;;;;4.10;2.77;;;5.70;99.90;;;;;;2082254;28;20188;-68
2023/11/22 00:49:00;;;;;;;3.20;2.30;;;5.70;99.90;;;;;;2089645;28;20218;-68
2023/11/22 00:50:03;;;;;;;4.37;2.50;;;5.70;99.90;;;;;;2092620;28;20187;-68
2023/11/22 00:51:08;;;;;;;3.22;2.67;;;5.70;99.90;;;;;;2091801;28;20190;-68
2023/11/22 00:52:09;;;;;;;2.90;2.08;;;5.80;99.90;;;;;;2094654;28;20175;-68
2023/11/22 00:53:10;;;;;;;3.60;2.40;;;5.80;99.90;;;;;;2079678;28;20199;-68
2023/11/22 00:54:10;;;;;;;7.57;2.40;;;5.90;99.90;;;;;;2079586;28;20696;-68
2023/11/22 00:55:11;;;;;;;4.50;2.07;;;5.90;99.90;;;;;;2093504;28;20184;-68
2023/11/22 00:56:12;;;;;;;3.77;2.00;;;5.80;99.90;;;;;;2087697;28;22557;-68
2023/11/22 00:57:13;;;;;;;4.03;2.50;;;5.80;99.90;;;;;;2071350;28;20329;-68
2023/11/22 00:58:14;;;;;;;3.90;2.00;;;5.90;99.90;;;;;;2084486;28;20718;-68
2023/11/22 00:59:14;;;;;;;7.93;2.93;;;5.80;99.90;;;;;;2079699;28;20320;-68
2023/11/22 01:00:16;;;;;;;3.07;2.00;;;5.80;99.90;;;;;;2073103;28;20959;-68
2023/11/22 01:01:18;;;;;;;5.22;3.35;;;5.90;99.90;;;;;;2093853;28;20223;-68
2023/11/22 01:02:18;;;;;;;3.50;2.55;;;5.90;99.90;;;;;;2092399;28;20370;-68
2023/11/22 01:03:19;;;;;;;3.63;2.50;;;6.00;99.90;;;;;;2076916;28;20228;-68
2023/11/22 01:04:20;;;;;;;3.90;2.37;;;6.00;99.90;;;;;;2079831;28;20225;-68
2023/11/22 01:05:22;;;;;;;3.40;2.20;;;5.90;99.90;;;;;;2091862;28;20232;-68
2023/11/22 01:06:23;;;;;;;3.25;2.10;;;5.90;99.90;;;;;;2091518;28;20220;-67
2023/11/22 01:07:24;;;;;;;2.55;1.80;;;5.90;99.90;;;;;;2096193;28;20233;-68
2023/11/22 01:08:24;;;;;;;3.00;2.20;;;5.90;99.90;;;;;;2088052;28;20723;-68
2023/11/22 01:09:25;;;;;;;4.30;2.23;;;6.00;99.90;;;;;;2084418;28;20290;-68
2023/11/22 01:10:26;;;;;;;3.53;2.17;;;5.90;99.90;;;;;;2086355;28;20228;-68
2023/11/22 01:11:26;;;;;;;4.10;2.67;;;5.90;99.90;;;;;;2083101;28;20574;-68
2023/11/22 01:12:27;;;;;;;5.53;2.43;;;5.90;99.90;;;;;;2086249;28;20235;-68
2023/11/22 01:13:28;;;;;;;4.40;2.63;;;6.00;99.90;;;;;;2081489;28;20221;-68
2023/11/22 01:14:29;;;;;;;4.13;1.97;;;6.00;99.90;;;;;;2087455;28;20231;-68
2023/11/22 01:15:30;;;;;;;3.22;2.30;;;6.00;99.90;;;;;;2082448;28;20290;-68
2023/11/22 01:16:31;;;;;;;3.53;2.08;;;6.00;99.90;;;;;;2083681;28;20228;-68
2023/11/22 01:17:34;;;;;;;5.05;2.40;;;6.00;99.90;;;;;;2081836;28;20659;-68
2023/11/22 01:18:35;;;;;;;7.82;2.78;;;6.00;99.90;;;;;;2086376;28;20232;-68
2023/11/22 01:19:35;;;;;;;3.60;2.47;;;6.00;99.90;;;;;;2090515;28;20227;-68
2023/11/22 01:20:36;;;;;;;4.80;2.70;;;6.00;99.90;;;;;;2087644;28;20547;-68
2023/11/22 01:21:37;;;;;;;4.80;2.20;;;6.10;99.90;;;;;;2079842;28;20271;-68
2023/11/22 01:22:37;;;;;;;3.80;2.20;;;6.10;99.90;;;;;;2093740;28;20666;-68
2023/11/22 01:23:38;;;;;;;3.17;2.47;;;6.10;99.90;;;;;;2084254;28;20610;-68
2023/11/22 01:24:39;;;;;;;3.17;2.37;;;6.10;99.90;;;;;;2088093;28;20220;-68
2023/11/22 01:25:40;;;;;;;3.03;2.27;;;6.00;99.90;;;;;;2092633;28;20227;-68
2023/11/22 01:26:40;;;;;;;3.50;2.50;;;6.10;99.90;;;;;;2092860;28;20250;-68
2023/11/22 01:27:41;;;;;;;3.20;2.30;;;6.10;99.90;;;;;;2096477;28;20227;-68
2023/11/22 01:28:44;;;;;;;3.30;2.53;;;6.10;99.90;;;;;;2095271;28;20227;-67
2023/11/22 01:29:45;;;;;;;3.67;2.65;;;6.10;99.90;;;;;;2094704;28;20223;-67
2023/11/22 01:30:46;;;;;;;4.22;2.72;;;6.10;99.90;;;;;;2094742;28;20228;-68
2023/11/22 01:31:47;;;;;;;4.20;2.57;;;6.10;99.90;;;;;;2098310;28;20577;-68
2023/11/22 01:32:49;;;;;;;4.63;3.42;;;6.20;99.90;;;;;;2090456;28;20266;-68
2023/11/22 01:33:49;;;;;;;5.22;3.58;;;6.20;99.90;;;;;;2093656;28;20223;-68
2023/11/22 01:34:50;;;;;;;5.03;2.47;;;6.30;99.90;;;;;;2079745;28;20225;-68
2023/11/22 01:35:51;;;;;;;4.57;2.70;;;6.30;99.90;;;;;;2087490;28;20293;-68
2023/11/22 01:36:51;;;;;;;4.83;3.37;;;6.30;99.90;;;;;;2087339;28;20254;-68
2023/11/22 01:37:52;;;;;;;6.80;3.00;;;6.40;99.90;;;;;;2094794;28;20274;-68
2023/11/22 01:38:54;;;;;;;3.63;2.50;;;6.40;99.90;;;;;;2102397;28;20589;-69
2023/11/22 01:39:55;;;;;;;4.97;2.97;;;6.40;99.90;;;;;;2101288;28;20184;-69
2023/11/22 01:40:55;;;;;;;2.95;2.58;;;6.40;99.90;;;;;;2094767;28;20237;-68
2023/11/22 01:41:56;;;;;;;4.63;2.80;;;6.40;99.90;;;;;;2093639;28;20719;-68
2023/11/22 01:42:58;;;;;;;3.80;3.07;;;6.40;99.90;;;;;;2094992;28;20189;-68
2023/11/22 01:43:58;;;;;;;4.18;2.58;;;6.40;99.90;;;;;;2083960;28;20188;-67
2023/11/22 01:44:59;;;;;;;4.83;2.70;;;6.40;99.90;;;;;;2095853;28;20186;-68
2023/11/22 01:46:00;;;;;;;3.30;2.57;;;6.40;99.90;;;;;;2094606;28;20183;-68
2023/11/22 01:47:02;;;;;;;4.50;2.90;;;6.40;99.90;;;;;;2087650;28;20179;-68
2023/11/22 01:48:03;;;;;;;3.75;2.47;;;6.30;99.90;;;;;;2075586;28;20263;-68
2023/11/22 01:49:04;;;;;;;5.00;2.80;;;6.30;99.90;;;;;;2087372;28;20208;-67
2023/11/22 01:50:08;;;;;;;7.40;2.97;;;6.40;99.90;;;;;;2095844;28;20230;-68
2023/11/22 01:51:08;;;;;;;4.65;2.78;;;6.40;99.90;;;;;;2087844;28;20208;-68
2023/11/22 01:52:10;;;;;;;3.60;2.30;;;6.40;99.90;;;;;;2091759;28;20180;-68
2023/11/22 01:53:13;;;;;;;3.20;2.35;;;6.30;99.90;;;;;;2078948;28;20217;-67
2023/11/22 01:54:15;;;;;;;5.97;2.90;;;6.30;99.90;;;;;;2095202;28;21007;-68
2023/11/22 01:55:17;;;;;;;4.20;2.47;;;6.30;99.90;;;;;;2084560;28;20232;-68
2023/11/22 01:56:17;;;;;;;5.32;3.00;;;6.30;99.90;;;;;;2095263;28;20269;-68
2023/11/22 01:57:20;;;;;;;4.03;2.73;;;6.30;99.90;;;;;;2087790;28;20228;-68
2023/11/22 01:58:20;;;;;;;6.10;2.65;;;6.40;99.90;;;;;;2071870;28;20234;-67
2023/11/22 01:59:21;;;;;;;3.70;2.47;;;6.40;99.90;;;;;;2071031;28;20604;-68
2023/11/22 02:00:25;;;;;;;3.33;2.10;;;6.40;99.90;;;;;;2079284;28;20314;-68
2023/11/22 02:01:28;;;;;;;3.95;2.45;;;6.50;99.90;;;;;;2077692;28;20226;-68
2023/11/22 02:02:31;;;;;;;2.88;2.17;;;6.50;99.90;;;;;;2086781;28;20226;-68
2023/11/22 02:03:32;;;;;;;3.42;2.58;;;6.50;99.90;;;;;;2076409;28;20225;-68
2023/11/22 02:04:32;;;;;;;5.03;2.37;;;6.50;99.90;;;;;;2077812;28;20421;-68
2023/11/22 02:05:33;;;;;;;3.33;2.27;;;6.50;99.90;;;;;;2080405;28;20320;-68
2023/11/22 02:06:35;;;;;;;3.97;2.70;;;6.50;99.90;;;;;;2086654;28;20251;-68
2023/11/22 02:07:36;;;;;;;3.03;1.92;;;6.50;99.90;;;;;;2092052;28;20947;-68
2023/11/22 02:08:36;;;;;;;3.87;2.10;;;6.60;99.90;;;;;;2080915;28;20256;-68
2023/11/22 02:09:37;;;;;;;4.70;2.77;;;6.50;99.90;;;;;;2080086;28;20232;-68
2023/11/22 02:10:39;;;;;;;5.33;2.60;;;6.50;99.90;;;;;;2082134;28;20256;-68
2023/11/22 02:11:41;;;;;;;3.95;2.60;;;6.50;99.90;;;;;;2078765;28;20265;-68
2023/11/22 02:12:42;;;;;;;4.30;2.65;;;6.50;99.90;;;;;;2083098;28;20227;-68
2023/11/22 02:13:42;;;;;;;3.30;2.43;;;6.50;99.90;;;;;;2080565;28;20224;-67
2023/11/22 02:14:43;;;;;;;3.97;2.30;;;6.40;99.90;;;;;;2087961;28;20595;-68
2023/11/22 02:15:46;;;;;;;4.10;2.30;;;6.30;99.90;;;;;;2088670;28;20349;-68
2023/11/22 02:16:47;;;;;;;3.60;2.65;;;6.30;99.90;;;;;;2080702;28;20773;-68
2023/11/22 02:17:47;;;;;;;4.87;2.50;;;6.30;99.90;;;;;;2083361;28;20253;-68
2023/11/22 02:18:48;;;;;;;4.03;2.60;;;6.20;99.90;;;;;;2093651;28;20230;-68
2023/11/22 02:19:49;;;;;;;3.30;2.55;;;6.30;99.90;;;;;;2092294;28;20283;-68
2023/11/22 02:20:50;;;;;;;4.13;2.73;;;6.30;99.90;;;;;;2083279;28;20240;-68
2023/11/22 02:21:52;;;;;;;4.00;2.42;;;6.30;99.90;;;;;;2092794;28;20227;-68
2023/11/22 02:22:53;;;;;;;3.60;2.70;;;6.20;99.90;;;;;;2093032;28;20700;-69
2023/11/22 02:23:53;;;;;;;5.03;2.63;;;6.10;99.90;;;;;;2081506;28;20193;-68
2023/11/22 02:24:54;;;;;;;4.33;2.73;;;6.10;99.90;;;;;;2086609;28;20417;-68
2023/11/22 02:25:55;;;;;;;5.47;3.20;;;6.10;99.90;;;;;;2080304;28;20183;-68
2023/11/22 02:26:55;;;;;;;4.40;2.50;;;6.10;99.90;;;;;;2080904;28;20185;-68
2023/11/22 02:27:56;;;;;;;3.33;2.23;;;6.10;99.90;;;;;;2077185;28;20271;-68
2023/11/22 02:28:57;;;;;;;5.13;2.80;;;6.10;99.90;;;;;;2078901;28;20212;-68
2023/11/22 02:29:58;;;;;;;3.93;2.70;;;6.10;99.90;;;;;;2086948;28;20177;-68
2023/11/22 02:30:58;;;;;;;7.90;2.73;;;6.10;99.90;;;;;;2086637;28;20204;-68
2023/11/22 02:31:59;;;;;;;2.50;2.23;;;6.10;99.90;;;;;;2086892;28;20220;-68
2023/11/22 02:33:00;;;;;;;3.40;2.47;;;6.20;99.90;;;;;;2093766;28;20203;-68
2023/11/22 02:34:01;;;;;;;3.47;2.77;;;6.20;99.90;;;;;;2092901;28;20245;-68
2023/11/22 02:35:07;;;;;;;2.85;2.10;;;6.20;99.90;;;;;;2079483;28;20184;-68
2023/11/22 02:36:08;;;;;;;4.38;2.60;;;6.20;99.90;;;;;;2084526;28;20195;-68
2023/11/22 02:37:08;;;;;;;2.95;2.03;;;6.20;99.90;;;;;;2094755;28;20179;-68
2023/11/22 02:38:09;;;;;;;2.27;2.03;;;6.20;99.90;;;;;;2092555;28;20554;-68
2023/11/22 02:39:10;;;;;;;3.43;2.33;;;6.30;99.90;;;;;;2086988;28;20299;-67
2023/11/22 02:40:22;;;;;;;2.88;2.10;;;6.20;99.90;;;;;;2095434;28;20278;-68
2023/11/22 02:41:25;;;;;;;2.55;2.20;;;6.10;99.90;;;;;;2094624;28;20227;-68
2023/11/22 02:42:25;;;;;;;3.13;1.80;;;6.00;99.90;;;;;;2094834;28;20604;-68
2023/11/22 02:43:26;;;;;;;2.57;2.03;;;5.90;99.90;;;;;;2100743;28;20231;-68
2023/11/22 02:44:27;;;;;;;2.70;1.90;;;5.90;99.90;;;;;;2101554;28;20653;-67
2023/11/22 02:45:28;;;;;;;3.37;2.30;;;5.90;99.90;;;;;;2092604;28;20267;-68
2023/11/22 02:46:30;;;;;;;3.15;2.15;;;6.00;99.90;;;;;;2094013;28;20234;-68
2023/11/22 02:47:32;;;;;;;3.25;2.72;;;5.90;99.90;;;;;;2093473;28;20905;-68
2023/11/22 02:48:33;;;;;;;3.00;2.42;;;5.90;99.90;;;;;;2094652;28;20318;-68
2023/11/22 02:49:34;;;;;;;4.00;2.20;;;6.00;99.90;;;;;;2085383;28;20234;-68
2023/11/22 02:50:36;;;;;;;4.63;2.20;;;6.00;99.90;;;;;;2087564;28;21014;-68
2023/11/22 02:51:37;;;;;;;3.30;2.30;;;6.00;99.90;;;;;;2095466;28;20225;-68
2023/11/22 02:52:38;;;;;;;3.83;2.57;;;5.90;99.90;;;;;;2094577;28;20310;-68
2023/11/22 02:53:42;;;;;;;2.40;2.20;;;5.90;99.90;;;;;;2094918;28;20215;-68
2023/11/22 02:54:45;;;;;;;3.28;2.50;;;5.90;99.90;;;;;;2093279;28;20234;-67
2023/11/22 02:55:46;;;;;;;3.47;2.55;;;5.90;99.90;;;;;;2084848;28;20220;-68
2023/11/22 02:56:47;;;;;;;3.00;2.30;;;5.90;99.90;;;;;;2092230;28;20646;-67
2023/11/22 02:57:47;;;;;;;3.60;2.50;;;6.00;99.90;;;;;;2098840;28;20223;-68
2023/11/22 02:58:48;;;;;;;2.20;2.00;;;6.10;99.90;;;;;;2092811;28;20226;-68
2023/11/22 02:59:49;;;;;;;5.10;2.70;;;6.00;99.90;;;;;;2086009;28;20254;-67
2023/11/22 03:00:49;;;;;;;2.57;2.20;;;6.00;99.90;;;;;;2081565;28;20221;-67
2023/11/22 03:01:51;;;;;;;2.63;2.20;;;6.00;99.90;;;;;;2084167;28;20231;-68
2023/11/22 03:02:53;;;;;;;5.50;2.63;;;5.90;99.90;;;;;;2078845;28;20333;-68
2023/11/22 03:03:54;;;;;;;3.28;1.92;;;5.80;99.90;;;;;;2083922;28;20291;-68
2023/11/22 03:04:54;;;;;;;2.30;1.70;;;5.80;99.90;;;;;;2086430;28;20203;-68
2023/11/22 03:05:55;;;;;;;2.17;1.73;;;5.80;99.90;;;;;;2074262;28;20841;-68
2023/11/22 03:06:56;;;;;;;5.17;4.87;;;5.70;99.90;;;;;;2078063;28;20254;-68
2023/11/22 03:07:58;;;;;;;1.60;1.40;;;5.60;99.90;;;;;;2082427;28;20185;-68
2023/11/22 03:08:58;;;;;;;1.85;1.65;;;5.50;99.90;;;;;;2082902;28;20205;-68
2023/11/22 03:10:00;;;;;;;1.70;1.47;;;5.50;99.90;;;;;;2083883;28;20279;-68
2023/11/22 03:11:02;;;;;;;1.77;1.45;;;5.50;99.90;;;;;;2085637;28;20187;-68
2023/11/22 03:12:03;;;;;;;3.60;1.70;;;5.40;99.90;;;;;;2086079;28;20669;-68
2023/11/22 03:13:05;;;;;;;2.42;1.90;;;5.40;99.90;;;;;;2083076;28;20231;-68
2023/11/22 03:14:05;;;;;;;1.70;1.60;;;5.40;99.90;;;;;;2078584;28;20183;-68
2023/11/22 03:15:07;;;;;;;2.67;2.20;;;5.40;99.90;;;;;;2086641;28;20269;-68
2023/11/22 03:16:08;;;;;;;1.75;1.60;;;5.40;99.90;;;;;;2094415;28;20178;-68
2023/11/22 03:17:09;;;;;;;3.05;1.88;;;5.40;99.90;;;;;;2085901;28;20181;-68
2023/11/22 03:18:10;;;;;;;3.10;1.90;;;5.40;99.90;;;;;;2094278;28;20744;-68
2023/11/22 03:19:13;;;;;;;1.80;1.52;;;5.50;99.90;;;;;;2094480;28;20804;-68
2023/11/22 03:20:15;;;;;;;2.00;1.83;;;5.50;99.90;;;;;;2094767;28;20231;-68
2023/11/22 03:21:17;;;;;;;2.50;2.15;;;5.40;99.90;;;;;;2081860;28;20239;-68
2023/11/22 03:22:17;;;;;;;2.83;2.10;;;5.40;99.90;;;;;;2083881;28;20231;-68
2023/11/22 03:23:18;;;;;;;2.13;1.93;;;5.30;99.90;;;;;;2084892;28;20217;-68
2023/11/22 03:24:19;;;;;;;2.23;1.93;;;5.20;99.90;;;;;;2075351;28;20232;-67
2023/11/22 03:25:20;;;;;;;1.83;1.63;;;5.20;99.90;;;;;;2078311;28;21092;-68
2023/11/22 03:26:21;;;;;;;1.77;1.65;;;5.20;99.90;;;;;;2084048;28;20616;-68
2023/11/22 03:27:23;;;;;;;1.87;1.70;;;5.00;99.90;;;;;;2084712;28;20232;-67
2023/11/22 03:28:23;;;;;;;2.35;2.08;;;5.00;99.90;;;;;;2084894;28;20718;-67
2023/11/22 03:29:25;;;;;;;3.20;1.80;;;4.90;99.90;;;;;;2086115;28;20229;-68
2023/11/22 03:30:26;;;;;;;2.20;1.98;;;4.70;99.90;;;;;;2088305;28;20216;-68
2023/11/22 03:31:28;;;;;;;2.50;2.17;;;4.70;99.90;;;;;;2085898;28;20293;-67
2023/11/22 03:32:29;;;;;;;2.63;2.28;;;4.70;99.90;;;;;;2091759;28;20280;-68
2023/11/22 03:33:30;;;;;;;4.93;2.88;;;4.70;99.90;;;;;;2095839;28;20250;-68
2023/11/22 03:34:31;;;;;;;2.72;2.38;;;4.70;99.90;;;;;;2084951;28;20308;-68
2023/11/22 03:35:31;;;;;;;3.90;2.57;;;4.70;99.90;;;;;;2093605;28;20596;-68
2023/11/22 03:36:32;;;;;;;3.07;2.40;;;4.50;99.90;;;;;;2087743;28;20293;-68
2023/11/22 03:37:34;;;;;;;15.83;3.97;;;4.40;99.90;;;;;;2087272;28;20252;-67
2023/11/22 03:38:34;;;;;;;11.70;2.90;;;4.30;99.90;;;;;;2088321;28;20334;-67
2023/11/22 03:39:35;;;;;;;8.97;3.13;;;4.30;99.90;;;;;;2087925;28;20237;-68
2023/11/22 03:40:36;;;;;;;28.10;3.67;;;4.20;99.90;;;;;;2081373;28;20233;-68
2023/11/22 03:41:37;;;;;;;6.87;2.60;;;4.20;99.90;;;;;;2085793;28;20227;-68
2023/11/22 03:42:38;;;;;;;3.53;2.40;;;4.10;99.90;;;;;;2088242;28;20762;-68
2023/11/22 03:43:39;;;;;;;4.30;2.47;;;4.10;99.90;;;;;;2084810;28;20231;-68
2023/11/22 03:44:40;;;;;;;6.80;2.93;;;4.00;99.90;;;;;;2081146;28;20262;-67
2023/11/22 03:45:40;;;;;;;4.37;2.13;;;4.00;99.90;;;;;;2076485;28;20228;-68
2023/11/22 03:46:41;;;;;;;4.07;1.87;;;3.90;99.90;;;;;;2080792;28;20236;-68
2023/11/22 03:47:43;;;;;;;3.78;1.90;;;3.90;99.90;;;;;;2085854;28;20239;-67
2023/11/22 03:48:43;;;;;;;3.95;2.00;;;3.90;99.90;;;;;;2082842;28;20244;-68
2023/11/22 03:49:45;;;;;;;2.57;1.90;;;3.90;99.90;;;;;;2084875;28;20730;-68
2023/11/22 03:50:45;;;;;;;5.43;2.08;;;4.00;99.90;;;;;;2085525;28;20300;-68
2023/11/22 03:51:47;;;;;;;8.57;3.00;;;4.00;99.90;;;;;;2086155;28;20247;-68
2023/11/22 03:52:48;;;;;;;15.15;2.83;;;4.10;99.90;;;;;;2081790;28;20228;-68
2023/11/22 03:53:48;;;;;;;4.40;2.73;;;4.00;99.90;;;;;;2086635;28;20271;-67
2023/11/22 03:54:49;;;;;;;3.43;2.13;;;4.00;99.90;;;;;;2093288;28;20298;-68
2023/11/22 03:55:50;;;;;;;11.10;2.60;;;4.00;99.90;;;;;;2088489;28;20326;-67
2023/11/22 03:56:52;;;;;;;4.50;2.60;;;4.00;99.90;;;;;;2088093;28;20285;-68
2023/11/22 03:57:53;;;;;;;4.22;2.08;;;4.00;99.90;;;;;;2096128;28;20219;-69
2023/11/22 03:58:54;;;;;;;2.65;1.90;;;4.00;99.90;;;;;;2103873;28;20180;-68
2023/11/22 03:59:54;;;;;;;8.20;3.10;;;4.10;99.90;;;;;;2103870;28;20183;-68
2023/11/22 04:00:55;;;;;;;8.00;2.97;;;4.10;99.90;;;;;;2092990;28;20425;-68
2023/11/22 04:01:56;;;;;;;6.70;2.37;;;4.10;99.90;;;;;;2083106;28;20652;-68
2023/11/22 04:02:59;;;;;;;10.20;3.60;;;4.20;99.90;;;;;;2091405;28;20180;-68
2023/11/22 04:04:00;;;;;;;9.20;3.00;;;4.20;99.90;;;;;;2084444;28;20684;-68
2023/11/22 04:05:01;;;;;;;20.90;3.73;;;4.20;99.90;;;;;;2081863;28;20255;-68
2023/11/22 04:06:02;;;;;;;12.23;4.00;;;4.20;99.90;;;;;;2094460;28;20577;-67
2023/11/22 04:07:03;;;;;;;19.60;4.73;;;4.20;99.90;;;;;;2086195;28;20192;-68
2023/11/22 04:08:04;;;;;;;19.97;4.10;;;4.10;99.90;;;;;;2078110;28;20201;-67
2023/11/22 04:09:05;;;;;;;64.05;9.27;;;4.10;99.90;;;;;;2084221;28;20453;-67
2023/11/22 04:10:06;;;;;;;12.32;4.32;;;4.10;99.90;;;;;;2081154;28;20185;-68
2023/11/22 04:11:07;;;;;;;37.95;4.55;;;4.10;99.90;;;;;;2085890;28;20263;-68
2023/11/22 04:12:08;;;;;;;8.60;3.47;;;4.10;99.90;;;;;;2089824;28;20221;-68
2023/11/22 04:13:09;;;;;;;9.50;4.03;;;4.20;99.90;;;;;;2093379;28;20619;-68
2023/11/22 04:14:09;;;;;;;14.10;3.83;;;4.20;99.90;;;;;;2089367;28;20692;-68
2023/11/22 04:15:10;;;;;;;5.17;2.60;;;4.20;99.90;;;;;;2089584;28;20185;-67
2023/11/22 04:16:14;;;;;;;4.27;2.50;;;4.30;99.90;;;;;;2087974;28;20231;-67
2023/11/22 04:17:15;;;;;;;6.63;2.53;;;4.30;99.90;;;;;;2088709;28;20228;-68
2023/11/22 04:18:15;;;;;;;2.87;2.03;;;4.30;99.90;;;;;;2088749;28;20702;-68
2023/11/22 04:19:16;;;;;;;15.50;4.03;;;4.30;99.90;;;;;;2086606;28;20230;-68
2023/11/22 04:20:17;;;;;;;16.37;3.50;;;4.30;99.90;;;;;;2083905;28;20228;-68
2023/11/22 04:21:19;;;;;;;32.03;4.72;;;4.30;99.90;;;;;;2095434;28;20231;-68
2023/11/22 04:22:19;;;;;;;20.70;3.67;;;4.40;99.90;;;;;;2097978;28;20235;-68
2023/11/22 04:23:21;;;;;;;10.10;3.07;;;4.40;99.90;;;;;;2078956;28;20217;-68
2023/11/22 04:24:21;;;;;;;23.90;3.50;;;4.40;99.90;;;;;;2067123;28;20214;-67
2023/11/22 04:25:23;;;;;;;33.23;4.30;;;4.40;99.90;;;;;;2078130;28;20229;-68
2023/11/22 04:26:24;;;;;;;50.97;5.30;;;4.40;99.90;;;;;;2087417;28;20263;-68
2023/11/22 04:27:25;;;;;;;9.68;2.90;;;4.40;99.90;;;;;;2084413;28;20260;-67
2023/11/22 04:28:27;;;;;;;31.52;4.85;;;4.40;99.90;;;;;;2083827;28;20811;-67
2023/11/22 04:29:28;;;;;;;15.82;3.33;;;4.30;99.90;;;;;;2087294;28;20228;-68
2023/11/22 04:30:29;;;;;;;5.90;2.67;;;4.20;99.90;;;;;;2082129;28;20237;-68
2023/11/22 04:31:30;;;;;;;3.23;2.17;;;4.20;99.90;;;;;;2092607;28;20224;-67
2023/11/22 04:32:30;;;;;;;3.55;2.50;;;4.10;99.90;;;;;;2092912;28;20228;-68
2023/11/22 04:33:31;;;;;;;3.87;2.17;;;4.00;99.90;;;;;;2089465;28;20240;-68
2023/11/22 04:34:32;;;;;;;2.60;2.07;;;3.90;99.90;;;;;;2079203;28;20236;-68
2023/11/22 04:35:38;;;;;;;2.80;2.30;;;3.90;99.90;;;;;;2086411;28;20674;-68
2023/11/22 04:36:39;;;;;;;2.00;1.73;;;3.90;99.90;;;;;;2083371;28;20232;-68
2023/11/22 04:37:39;;;;;;;1.83;1.60;;;3.90;99.90;;;;;;2093627;28;20231;-67
2023/11/22 04:38:40;;;;;;;2.13;1.70;;;3.80;99.90;;;;;;2096109;28;20238;-68
2023/11/22 04:39:41;;;;;;;1.70;1.50;;;3.70;99.90;;;;;;2102422;28;20740;-67
2023/11/22 04:40:44;;;;;;;1.93;1.70;;;3.60;99.90;;;;;;2085184;28;20228;-67
2023/11/22 04:41:45;;;;;;;1.92;1.55;;;3.60;99.90;;;;;;2078371;28;20320;-68
2023/11/22 04:42:46;;;;;;;1.93;1.60;;;3.50;99.90;;;;;;2096093;28;20603;-67
2023/11/22 04:43:46;;;;;;;2.07;1.70;;;3.50;99.90;;;;;;2095200;28;20239;-67
2023/11/22 04:44:47;;;;;;;2.17;1.67;;;3.40;99.90;;;;;;2080269;28;20734;-68
2023/11/22 04:45:49;;;;;;;1.60;1.33;;;3.40;99.90;;;;;;2086676;28;20220;-68
2023/11/22 04:46:51;;;;;;;2.20;1.77;;;3.30;99.90;;;;;;2090587;28;20235;-68
2023/11/22 04:47:52;;;;;;;2.30;2.05;;;3.40;99.90;;;;;;2095872;28;20312;-67
2023/11/22 04:48:52;;;;;;;2.80;2.00;;;3.40;99.90;;;;;;2094904;28;20236;-69
2023/11/22 04:49:53;;;;;;;3.27;2.40;;;3.40;99.90;;;;;;2086318;28;20212;-68
2023/11/22 04:50:54;;;;;;;2.13;1.90;;;3.40;99.90;;;;;;2086883;28;20262;-67
2023/11/22 04:51:55;;;;;;;3.10;2.50;;;3.30;99.90;;;;;;2084519;28;20235;-68
2023/11/22 04:52:56;;;;;;;3.30;2.30;;;3.20;99.90;;;;;;2089341;28;20596;-68
2023/11/22 04:53:57;;;;;;;4.03;2.60;;;3.40;99.90;;;;;;2084239;28;20663;-68
2023/11/22 04:54:58;;;;;;;2.27;2.07;;;3.30;99.90;;;;;;2082612;28;20193;-68
2023/11/22 04:55:59;;;;;;;2.80;2.27;;;3.30;99.90;;;;;;2082149;28;20195;-68
2023/11/22 04:57:00;;;;;;;5.20;4.07;;;3.20;99.90;;;;;;2083282;28;20659;-67
2023/11/22 04:58:01;;;;;;;3.10;2.60;;;3.40;99.90;;;;;;2092823;28;20184;-67
2023/11/22 04:59:03;;;;;;;2.20;1.90;;;3.40;99.90;;;;;;2079009;28;20692;-68
2023/11/22 05:00:07;;;;;;;2.60;2.15;;;3.40;99.90;;;;;;2072588;28;20178;-67
2023/11/22 05:01:10;;;;;;;3.17;2.33;;;3.30;99.90;;;;;;2079868;28;20177;-67
2023/11/22 05:02:11;;;;;;;2.88;2.53;;;3.30;99.90;;;;;;2090898;28;20181;-67
2023/11/22 05:03:12;;;;;;;2.17;1.83;;;3.30;99.90;;;;;;2082414;28;20184;-67
2023/11/22 05:04:14;;;;;;;2.17;1.80;;;3.30;99.90;;;;;;2074500;28;20506;-67
2023/11/22 05:05:15;;;;;;;5.93;5.38;;;3.20;99.90;;;;;;2068227;28;20249;-67
2023/11/22 05:06:16;;;;;;;2.70;2.30;;;3.30;99.90;;;;;;2086719;28;20263;-67
2023/11/22 05:07:18;;;;;;;1.85;1.63;;;3.30;99.90;;;;;;2086791;28;20315;-68
2023/11/22 05:08:20;;;;;;;2.65;1.88;;;3.20;99.90;;;;;;2084972;28;20232;-68
2023/11/22 05:09:20;;;;;;;2.72;2.15;;;3.10;99.90;;;;;;2087228;28;20607;-68
2023/11/22 05:10:21;;;;;;;2.20;1.83;;;3.10;99.90;;;;;;2081096;28;20271;-67
2023/11/22 05:11:22;;;;;;;2.53;2.07;;;3.10;99.90;;;;;;2075278;28;20599;-67
2023/11/22 05:12:22;;;;;;;2.00;1.80;;;2.90;99.90;;;;;;2091226;28;20220;-68
2023/11/22 05:13:23;;;;;;;2.20;1.90;;;2.80;99.90;;;;;;2085515;28;20758;-67
2023/11/22 05:14:24;;;;;;;2.50;2.10;;;2.80;99.90;;;;;;2073185;28;20233;-68
2023/11/22 05:15:26;;;;;;;3.67;2.50;;;2.80;99.90;;;;;;2078802;28;20236;-68
2023/11/22 05:16:27;;;;;;;2.10;1.70;;;2.70;99.90;;;;;;2076137;28;20228;-68
2023/11/22 05:17:28;;;;;;;2.72;2.15;;;2.70;99.90;;;;;;2078251;28;20236;-68
2023/11/22 05:18:29;;;;;;;2.20;1.90;;;2.70;99.90;;;;;;2078023;28;20725;-68
2023/11/22 05:19:31;;;;;;;2.57;2.17;;;2.80;99.90;;;;;;2083692;28;20232;-68
2023/11/22 05:20:32;;;;;;;2.00;1.80;;;2.70;99.90;;;;;;2078406;28;20231;-68
2023/11/22 05:21:33;;;;;;;2.28;1.90;;;2.80;99.90;;;;;;2085755;28;20282;-68